sensor_id;sensor_type;location;lat;lon;timestamp;P1;durP1;ratioP1;P2;durP2;ratioP2
6590;SDS011;3331;47.978;7.662;2022-07-29T00:02:14;4.93;;;4.03;;
6590;SDS011;3331;47.978;7.662;2022-07-29T00:04:40;7.53;;;3.90;;
6590;SDS011;3331;47.978;7.662;2022-07-29T00:07:07;4.87;;;3.80;;
6590;SDS011;3331;47.978;7.662;2022-07-29T00:09:35;5.50;;;3.87;;
6590;SDS011;3331;47.978;7.662;2022-07-29T00:12:02;7.30;;;4.57;;
6590;SDS011;3331;47.978;7.662;2022-07-29T00:14:28;6.83;;;4.60;;
6590;SDS011;3331;47.978;7.662;2022-07-29T00:16:55;4.63;;;3.57;;
6590;SDS011;3331;47.978;7.662;2022-07-29T00:19:22;3.80;;;3.40;;
6590;SDS011;3331;47.978;7.662;2022-07-29T00:21:49;5.60;;;3.47;;
6590;SDS011;3331;47.978;7.662;2022-07-29T00:24:15;4.00;;;3.60;;
6590;SDS011;3331;47.978;7.662;2022-07-29T00:26:43;4.00;;;3.60;;
6590;SDS011;3331;47.978;7.662;2022-07-29T00:29:19;10.03;;;4.07;;
6590;SDS011;3331;47.978;7.662;2022-07-29T00:31:45;6.83;;;4.13;;
6590;SDS011;3331;47.978;7.662;2022-07-29T00:34:13;4.20;;;3.80;;
6590;SDS011;3331;47.978;7.662;2022-07-29T00:36:53;5.50;;;3.40;;
6590;SDS011;3331;47.978;7.662;2022-07-29T00:39:19;5.03;;;3.93;;
6590;SDS011;3331;47.978;7.662;2022-07-29T00:41:48;5.80;;;4.00;;
6590;SDS011;3331;47.978;7.662;2022-07-29T00:44:15;4.63;;;3.87;;
6590;SDS011;3331;47.978;7.662;2022-07-29T00:46:41;5.47;;;4.20;;
6590;SDS011;3331;47.978;7.662;2022-07-29T00:49:08;7.70;;;3.63;;
6590;SDS011;3331;47.978;7.662;2022-07-29T00:51:36;5.00;;;4.60;;
6590;SDS011;3331;47.978;7.662;2022-07-29T00:54:03;4.17;;;3.77;;
6590;SDS011;3331;47.978;7.662;2022-07-29T00:56:30;5.23;;;4.17;;
6590;SDS011;3331;47.978;7.662;2022-07-29T00:58:59;3.83;;;3.53;;
6590;SDS011;3331;47.978;7.662;2022-07-29T01:01:26;7.67;;;4.33;;
6590;SDS011;3331;47.978;7.662;2022-07-29T01:03:55;6.10;;;3.77;;
6590;SDS011;3331;47.978;7.662;2022-07-29T01:06:32;4.67;;;3.97;;
6590;SDS011;3331;47.978;7.662;2022-07-29T01:08:59;4.23;;;3.60;;
6590;SDS011;3331;47.978;7.662;2022-07-29T01:11:26;10.27;;;3.73;;
6590;SDS011;3331;47.978;7.662;2022-07-29T01:13:53;7.00;;;4.07;;
6590;SDS011;3331;47.978;7.662;2022-07-29T01:16:23;4.10;;;3.37;;
6590;SDS011;3331;47.978;7.662;2022-07-29T01:18:50;4.00;;;3.57;;
6590;SDS011;3331;47.978;7.662;2022-07-29T01:21:27;3.87;;;3.20;;
6590;SDS011;3331;47.978;7.662;2022-07-29T01:24:09;4.60;;;3.73;;
6590;SDS011;3331;47.978;7.662;2022-07-29T01:26:41;5.37;;;3.30;;
6590;SDS011;3331;47.978;7.662;2022-07-29T01:29:12;4.20;;;3.80;;
6590;SDS011;3331;47.978;7.662;2022-07-29T01:31:42;6.07;;;3.83;;
6590;SDS011;3331;47.978;7.662;2022-07-29T01:34:10;5.67;;;3.90;;
6590;SDS011;3331;47.978;7.662;2022-07-29T01:36:40;5.93;;;4.00;;
6590;SDS011;3331;47.978;7.662;2022-07-29T01:39:10;6.00;;;3.80;;
6590;SDS011;3331;47.978;7.662;2022-07-29T01:41:38;4.90;;;4.27;;
6590;SDS011;3331;47.978;7.662;2022-07-29T01:44:12;4.67;;;4.27;;
6590;SDS011;3331;47.978;7.662;2022-07-29T01:46:41;5.03;;;4.00;;
6590;SDS011;3331;47.978;7.662;2022-07-29T01:49:11;4.87;;;3.70;;
6590;SDS011;3331;47.978;7.662;2022-07-29T01:51:41;4.53;;;4.13;;
6590;SDS011;3331;47.978;7.662;2022-07-29T01:54:10;5.40;;;3.77;;
6590;SDS011;3331;47.978;7.662;2022-07-29T01:56:38;6.03;;;4.50;;
6590;SDS011;3331;47.978;7.662;2022-07-29T01:59:08;5.43;;;3.87;;
6590;SDS011;3331;47.978;7.662;2022-07-29T02:01:36;7.47;;;4.37;;
6590;SDS011;3331;47.978;7.662;2022-07-29T02:04:04;4.20;;;3.80;;
6590;SDS011;3331;47.978;7.662;2022-07-29T02:06:34;4.47;;;3.53;;
6590;SDS011;3331;47.978;7.662;2022-07-29T02:09:02;4.30;;;3.90;;
6590;SDS011;3331;47.978;7.662;2022-07-29T02:11:30;7.20;;;4.43;;
6590;SDS011;3331;47.978;7.662;2022-07-29T02:13:57;4.33;;;3.93;;
6590;SDS011;3331;47.978;7.662;2022-07-29T02:16:24;7.17;;;3.93;;
6590;SDS011;3331;47.978;7.662;2022-07-29T02:18:54;6.30;;;3.80;;
6590;SDS011;3331;47.978;7.662;2022-07-29T02:21:24;5.87;;;3.60;;
6590;SDS011;3331;47.978;7.662;2022-07-29T02:23:51;9.43;;;4.50;;
6590;SDS011;3331;47.978;7.662;2022-07-29T02:26:19;4.87;;;4.00;;
6590;SDS011;3331;47.978;7.662;2022-07-29T02:28:46;5.13;;;3.60;;
6590;SDS011;3331;47.978;7.662;2022-07-29T02:31:13;5.53;;;4.07;;
6590;SDS011;3331;47.978;7.662;2022-07-29T03:06:47;3.90;;;3.60;;
6590;SDS011;3331;47.978;7.662;2022-07-29T03:09:14;4.93;;;3.50;;
6590;SDS011;3331;47.978;7.662;2022-07-29T03:11:41;3.73;;;3.43;;
6590;SDS011;3331;47.978;7.662;2022-07-29T03:14:08;8.67;;;3.67;;
6590;SDS011;3331;47.978;7.662;2022-07-29T03:16:35;6.77;;;2.93;;
6590;SDS011;3331;47.978;7.662;2022-07-29T03:19:02;3.20;;;2.90;;
6590;SDS011;3331;47.978;7.662;2022-07-29T03:21:29;6.13;;;3.47;;
6590;SDS011;3331;47.978;7.662;2022-07-29T03:23:57;3.47;;;3.17;;
6590;SDS011;3331;47.978;7.662;2022-07-29T03:26:24;4.57;;;3.10;;
6590;SDS011;3331;47.978;7.662;2022-07-29T03:28:50;4.30;;;3.20;;
6590;SDS011;3331;47.978;7.662;2022-07-29T03:31:17;3.47;;;3.17;;
6590;SDS011;3331;47.978;7.662;2022-07-29T03:33:44;4.90;;;3.20;;
6590;SDS011;3331;47.978;7.662;2022-07-29T03:36:10;7.13;;;3.73;;
6590;SDS011;3331;47.978;7.662;2022-07-29T03:38:38;3.33;;;3.03;;
6590;SDS011;3331;47.978;7.662;2022-07-29T03:41:09;6.87;;;3.70;;
6590;SDS011;3331;47.978;7.662;2022-07-29T03:43:37;8.83;;;3.53;;
6590;SDS011;3331;47.978;7.662;2022-07-29T03:46:04;3.80;;;3.50;;
6590;SDS011;3331;47.978;7.662;2022-07-29T03:48:32;5.13;;;3.20;;
6590;SDS011;3331;47.978;7.662;2022-07-29T03:51:01;5.17;;;3.73;;
6590;SDS011;3331;47.978;7.662;2022-07-29T03:53:27;5.33;;;3.80;;
6590;SDS011;3331;47.978;7.662;2022-07-29T03:55:54;8.23;;;3.67;;
6590;SDS011;3331;47.978;7.662;2022-07-29T03:58:25;3.93;;;3.13;;
6590;SDS011;3331;47.978;7.662;2022-07-29T04:00:52;4.70;;;3.33;;
6590;SDS011;3331;47.978;7.662;2022-07-29T04:03:20;3.90;;;3.50;;
6590;SDS011;3331;47.978;7.662;2022-07-29T04:05:56;3.47;;;3.17;;
6590;SDS011;3331;47.978;7.662;2022-07-29T04:08:23;3.43;;;3.13;;
6590;SDS011;3331;47.978;7.662;2022-07-29T04:10:49;5.80;;;3.27;;
6590;SDS011;3331;47.978;7.662;2022-07-29T04:13:17;3.97;;;3.50;;
6590;SDS011;3331;47.978;7.662;2022-07-29T04:15:45;3.80;;;3.37;;
6590;SDS011;3331;47.978;7.662;2022-07-29T04:18:11;5.10;;;3.30;;
6590;SDS011;3331;47.978;7.662;2022-07-29T04:20:38;6.47;;;3.90;;
6590;SDS011;3331;47.978;7.662;2022-07-29T04:23:04;3.23;;;2.93;;
6590;SDS011;3331;47.978;7.662;2022-07-29T04:25:31;4.40;;;3.20;;
6590;SDS011;3331;47.978;7.662;2022-07-29T04:27:57;5.70;;;3.40;;
6590;SDS011;3331;47.978;7.662;2022-07-29T04:30:26;5.50;;;3.23;;
6590;SDS011;3331;47.978;7.662;2022-07-29T04:32:54;4.10;;;3.13;;
6590;SDS011;3331;47.978;7.662;2022-07-29T04:35:21;6.57;;;3.33;;
6590;SDS011;3331;47.978;7.662;2022-07-29T04:37:47;4.93;;;3.47;;
6590;SDS011;3331;47.978;7.662;2022-07-29T04:40:14;3.60;;;3.07;;
6590;SDS011;3331;47.978;7.662;2022-07-29T04:42:41;4.03;;;2.97;;
6590;SDS011;3331;47.978;7.662;2022-07-29T04:45:08;5.67;;;3.53;;
6590;SDS011;3331;47.978;7.662;2022-07-29T04:47:34;5.40;;;3.40;;
6590;SDS011;3331;47.978;7.662;2022-07-29T04:50:02;3.20;;;2.93;;
6590;SDS011;3331;47.978;7.662;2022-07-29T04:52:31;6.03;;;4.13;;
6590;SDS011;3331;47.978;7.662;2022-07-29T04:54:57;4.03;;;3.23;;
6590;SDS011;3331;47.978;7.662;2022-07-29T04:57:24;3.77;;;3.37;;
6590;SDS011;3331;47.978;7.662;2022-07-29T04:59:50;4.03;;;3.30;;
6590;SDS011;3331;47.978;7.662;2022-07-29T05:02:17;5.27;;;3.70;;
6590;SDS011;3331;47.978;7.662;2022-07-29T05:04:43;5.67;;;3.37;;
6590;SDS011;3331;47.978;7.662;2022-07-29T05:07:11;4.73;;;3.80;;
6590;SDS011;3331;47.978;7.662;2022-07-29T05:09:38;4.50;;;3.27;;
6590;SDS011;3331;47.978;7.662;2022-07-29T05:12:05;5.30;;;3.30;;
6590;SDS011;3331;47.978;7.662;2022-07-29T05:14:31;3.60;;;3.30;;
6590;SDS011;3331;47.978;7.662;2022-07-29T05:16:57;7.27;;;3.60;;
6590;SDS011;3331;47.978;7.662;2022-07-29T05:19:24;10.37;;;3.53;;
6590;SDS011;3331;47.978;7.662;2022-07-29T05:21:50;3.90;;;3.33;;
6590;SDS011;3331;47.978;7.662;2022-07-29T05:24:18;9.70;;;3.43;;
6590;SDS011;3331;47.978;7.662;2022-07-29T05:26:45;5.50;;;2.50;;
6590;SDS011;3331;47.978;7.662;2022-07-29T05:29:11;7.30;;;3.50;;
6590;SDS011;3331;47.978;7.662;2022-07-29T05:31:38;7.37;;;3.07;;
6590;SDS011;3331;47.978;7.662;2022-07-29T05:34:04;4.53;;;2.90;;
6590;SDS011;3331;47.978;7.662;2022-07-29T05:36:30;4.17;;;2.90;;
6590;SDS011;3331;47.978;7.662;2022-07-29T05:38:57;6.73;;;3.33;;
6590;SDS011;3331;47.978;7.662;2022-07-29T05:41:25;12.17;;;3.47;;
6590;SDS011;3331;47.978;7.662;2022-07-29T05:43:51;8.03;;;3.73;;
6590;SDS011;3331;47.978;7.662;2022-07-29T05:46:18;11.97;;;3.67;;
6590;SDS011;3331;47.978;7.662;2022-07-29T05:48:45;7.80;;;2.97;;
6590;SDS011;3331;47.978;7.662;2022-07-29T05:51:11;6.00;;;3.20;;
6590;SDS011;3331;47.978;7.662;2022-07-29T05:53:38;4.40;;;3.13;;
6590;SDS011;3331;47.978;7.662;2022-07-29T05:56:04;6.73;;;3.13;;
6590;SDS011;3331;47.978;7.662;2022-07-29T05:58:32;8.40;;;3.17;;
6590;SDS011;3331;47.978;7.662;2022-07-29T06:00:59;3.23;;;2.90;;
6590;SDS011;3331;47.978;7.662;2022-07-29T06:03:26;6.60;;;3.00;;
6590;SDS011;3331;47.978;7.662;2022-07-29T06:05:52;9.07;;;3.10;;
6590;SDS011;3331;47.978;7.662;2022-07-29T06:08:19;3.20;;;2.90;;
6590;SDS011;3331;47.978;7.662;2022-07-29T06:10:48;8.87;;;3.27;;
6590;SDS011;3331;47.978;7.662;2022-07-29T06:13:17;7.53;;;3.03;;
6590;SDS011;3331;47.978;7.662;2022-07-29T06:15:44;3.93;;;2.53;;
6590;SDS011;3331;47.978;7.662;2022-07-29T06:18:11;4.93;;;2.50;;
6590;SDS011;3331;47.978;7.662;2022-07-29T06:20:38;5.70;;;3.30;;
6590;SDS011;3331;47.978;7.662;2022-07-29T06:23:04;5.23;;;2.90;;
6590;SDS011;3331;47.978;7.662;2022-07-29T06:25:31;2.10;;;1.90;;
6590;SDS011;3331;47.978;7.662;2022-07-29T06:27:59;8.53;;;2.67;;
6590;SDS011;3331;47.978;7.662;2022-07-29T06:30:26;3.70;;;2.30;;
6590;SDS011;3331;47.978;7.662;2022-07-29T06:32:55;6.17;;;2.70;;
6590;SDS011;3331;47.978;7.662;2022-07-29T06:35:21;5.20;;;2.23;;
6590;SDS011;3331;47.978;7.662;2022-07-29T06:37:49;8.27;;;2.53;;
6590;SDS011;3331;47.978;7.662;2022-07-29T06:40:16;6.00;;;2.57;;
6590;SDS011;3331;47.978;7.662;2022-07-29T06:42:59;5.50;;;2.23;;
6590;SDS011;3331;47.978;7.662;2022-07-29T06:45:26;4.60;;;2.30;;
6590;SDS011;3331;47.978;7.662;2022-07-29T06:47:52;5.77;;;2.30;;
6590;SDS011;3331;47.978;7.662;2022-07-29T06:50:21;3.23;;;2.13;;
6590;SDS011;3331;47.978;7.662;2022-07-29T06:52:47;2.70;;;2.10;;
6590;SDS011;3331;47.978;7.662;2022-07-29T06:55:14;3.70;;;2.23;;
6590;SDS011;3331;47.978;7.662;2022-07-29T06:57:41;7.03;;;2.40;;
6590;SDS011;3331;47.978;7.662;2022-07-29T07:00:08;2.60;;;2.00;;
6590;SDS011;3331;47.978;7.662;2022-07-29T07:02:35;7.50;;;2.50;;
6590;SDS011;3331;47.978;7.662;2022-07-29T07:05:01;5.00;;;2.37;;
6590;SDS011;3331;47.978;7.662;2022-07-29T07:07:29;3.30;;;2.30;;
6590;SDS011;3331;47.978;7.662;2022-07-29T07:09:56;4.70;;;2.80;;
6590;SDS011;3331;47.978;7.662;2022-07-29T07:12:22;2.40;;;2.20;;
6590;SDS011;3331;47.978;7.662;2022-07-29T07:14:49;4.30;;;3.13;;
6590;SDS011;3331;47.978;7.662;2022-07-29T07:17:15;8.13;;;2.80;;
6590;SDS011;3331;47.978;7.662;2022-07-29T07:19:42;4.40;;;2.30;;
6590;SDS011;3331;47.978;7.662;2022-07-29T07:22:09;7.40;;;2.77;;
6590;SDS011;3331;47.978;7.662;2022-07-29T07:24:40;4.50;;;3.00;;
6590;SDS011;3331;47.978;7.662;2022-07-29T07:27:07;8.13;;;2.63;;
6590;SDS011;3331;47.978;7.662;2022-07-29T07:29:33;3.87;;;2.80;;
6590;SDS011;3331;47.978;7.662;2022-07-29T07:32:00;3.13;;;2.43;;
6590;SDS011;3331;47.978;7.662;2022-07-29T07:34:27;8.00;;;2.63;;
6590;SDS011;3331;47.978;7.662;2022-07-29T07:36:55;9.53;;;3.17;;
6590;SDS011;3331;47.978;7.662;2022-07-29T07:39:21;4.43;;;2.70;;
6590;SDS011;3331;47.978;7.662;2022-07-29T07:41:50;3.23;;;2.83;;
6590;SDS011;3331;47.978;7.662;2022-07-29T07:44:16;6.67;;;2.70;;
6590;SDS011;3331;47.978;7.662;2022-07-29T07:46:43;3.97;;;2.87;;
6590;SDS011;3331;47.978;7.662;2022-07-29T07:49:10;10.83;;;2.80;;
6590;SDS011;3331;47.978;7.662;2022-07-29T07:51:37;4.43;;;3.00;;
6590;SDS011;3331;47.978;7.662;2022-07-29T07:54:03;3.17;;;2.50;;
6590;SDS011;3331;47.978;7.662;2022-07-29T07:56:30;7.97;;;3.60;;
6590;SDS011;3331;47.978;7.662;2022-07-29T07:58:58;9.23;;;3.07;;
6590;SDS011;3331;47.978;7.662;2022-07-29T08:01:24;6.60;;;3.30;;
6590;SDS011;3331;47.978;7.662;2022-07-29T08:03:51;9.43;;;3.70;;
6590;SDS011;3331;47.978;7.662;2022-07-29T08:06:17;8.57;;;2.93;;
6590;SDS011;3331;47.978;7.662;2022-07-29T08:08:43;3.37;;;2.33;;
6590;SDS011;3331;47.978;7.662;2022-07-29T08:11:10;6.10;;;3.13;;
6590;SDS011;3331;47.978;7.662;2022-07-29T08:13:37;3.33;;;2.97;;
6590;SDS011;3331;47.978;7.662;2022-07-29T08:16:06;2.60;;;2.40;;
6590;SDS011;3331;47.978;7.662;2022-07-29T08:18:42;4.03;;;2.77;;
6590;SDS011;3331;47.978;7.662;2022-07-29T08:21:09;5.20;;;3.10;;
6590;SDS011;3331;47.978;7.662;2022-07-29T08:23:35;4.67;;;2.40;;
6590;SDS011;3331;47.978;7.662;2022-07-29T08:26:04;3.27;;;2.50;;
6590;SDS011;3331;47.978;7.662;2022-07-29T08:28:31;2.47;;;2.27;;
6590;SDS011;3331;47.978;7.662;2022-07-29T08:30:57;3.03;;;2.40;;
6590;SDS011;3331;47.978;7.662;2022-07-29T08:33:25;5.43;;;2.37;;
6590;SDS011;3331;47.978;7.662;2022-07-29T08:35:52;3.87;;;2.57;;
6590;SDS011;3331;47.978;7.662;2022-07-29T08:38:22;7.97;;;2.40;;
6590;SDS011;3331;47.978;7.662;2022-07-29T08:40:48;2.53;;;2.33;;
6590;SDS011;3331;47.978;7.662;2022-07-29T08:43:15;2.87;;;2.53;;
6590;SDS011;3331;47.978;7.662;2022-07-29T08:45:42;6.20;;;2.70;;
6590;SDS011;3331;47.978;7.662;2022-07-29T08:48:09;6.23;;;2.40;;
6590;SDS011;3331;47.978;7.662;2022-07-29T08:50:38;2.90;;;2.53;;
6590;SDS011;3331;47.978;7.662;2022-07-29T08:53:05;3.20;;;2.60;;
6590;SDS011;3331;47.978;7.662;2022-07-29T08:55:33;4.90;;;2.60;;
6590;SDS011;3331;47.978;7.662;2022-07-29T08:57:59;3.13;;;2.60;;
6590;SDS011;3331;47.978;7.662;2022-07-29T09:00:26;5.37;;;2.80;;
6590;SDS011;3331;47.978;7.662;2022-07-29T09:02:56;3.37;;;2.10;;
6590;SDS011;3331;47.978;7.662;2022-07-29T09:05:22;6.93;;;2.33;;
6590;SDS011;3331;47.978;7.662;2022-07-29T09:07:51;6.33;;;2.10;;
6590;SDS011;3331;47.978;7.662;2022-07-29T09:10:18;4.10;;;3.00;;
6590;SDS011;3331;47.978;7.662;2022-07-29T09:12:44;2.50;;;2.30;;
6590;SDS011;3331;47.978;7.662;2022-07-29T09:15:10;3.93;;;2.57;;
6590;SDS011;3331;47.978;7.662;2022-07-29T09:17:40;5.77;;;2.43;;
6590;SDS011;3331;47.978;7.662;2022-07-29T09:20:11;4.37;;;2.30;;
6590;SDS011;3331;47.978;7.662;2022-07-29T09:22:37;3.30;;;2.60;;
6590;SDS011;3331;47.978;7.662;2022-07-29T09:25:06;3.83;;;2.30;;
6590;SDS011;3331;47.978;7.662;2022-07-29T09:27:32;4.10;;;2.67;;
6590;SDS011;3331;47.978;7.662;2022-07-29T09:29:59;7.50;;;3.17;;
6590;SDS011;3331;47.978;7.662;2022-07-29T09:32:26;7.57;;;2.60;;
6590;SDS011;3331;47.978;7.662;2022-07-29T09:37:34;4.37;;;2.80;;
6590;SDS011;3331;47.978;7.662;2022-07-29T09:40:00;4.00;;;2.73;;
6590;SDS011;3331;47.978;7.662;2022-07-29T09:42:38;3.70;;;2.60;;
6590;SDS011;3331;47.978;7.662;2022-07-29T09:45:05;4.83;;;2.83;;
6590;SDS011;3331;47.978;7.662;2022-07-29T09:47:40;2.73;;;2.53;;
6590;SDS011;3331;47.978;7.662;2022-07-29T09:50:07;7.73;;;2.63;;
6590;SDS011;3331;47.978;7.662;2022-07-29T09:52:41;2.70;;;2.50;;
6590;SDS011;3331;47.978;7.662;2022-07-29T09:55:10;5.03;;;3.13;;
6590;SDS011;3331;47.978;7.662;2022-07-29T09:57:38;6.10;;;2.70;;
6590;SDS011;3331;47.978;7.662;2022-07-29T10:00:10;7.97;;;2.73;;
6590;SDS011;3331;47.978;7.662;2022-07-29T10:02:38;7.50;;;2.60;;
6590;SDS011;3331;47.978;7.662;2022-07-29T10:05:06;5.23;;;2.80;;
6590;SDS011;3331;47.978;7.662;2022-07-29T10:10:18;5.47;;;3.13;;
6590;SDS011;3331;47.978;7.662;2022-07-29T10:12:50;4.70;;;2.70;;
6590;SDS011;3331;47.978;7.662;2022-07-29T10:15:17;6.13;;;2.67;;
6590;SDS011;3331;47.978;7.662;2022-07-29T10:17:48;3.67;;;2.43;;
6590;SDS011;3331;47.978;7.662;2022-07-29T10:20:17;4.60;;;2.67;;
6590;SDS011;3331;47.978;7.662;2022-07-29T10:22:44;6.13;;;3.10;;
6590;SDS011;3331;47.978;7.662;2022-07-29T10:25:12;7.07;;;3.03;;
6590;SDS011;3331;47.978;7.662;2022-07-29T10:27:42;5.23;;;2.93;;
6590;SDS011;3331;47.978;7.662;2022-07-29T10:30:10;6.53;;;3.27;;
6590;SDS011;3331;47.978;7.662;2022-07-29T10:32:53;6.37;;;3.13;;
6590;SDS011;3331;47.978;7.662;2022-07-29T10:35:23;5.80;;;2.80;;
6590;SDS011;3331;47.978;7.662;2022-07-29T10:37:59;2.90;;;2.60;;
6590;SDS011;3331;47.978;7.662;2022-07-29T10:40:51;6.60;;;2.93;;
6590;SDS011;3331;47.978;7.662;2022-07-29T10:43:40;5.20;;;2.73;;
6590;SDS011;3331;47.978;7.662;2022-07-29T10:46:08;8.90;;;2.73;;
6590;SDS011;3331;47.978;7.662;2022-07-29T10:48:35;2.30;;;2.13;;
6590;SDS011;3331;47.978;7.662;2022-07-29T10:51:22;9.83;;;2.80;;
6590;SDS011;3331;47.978;7.662;2022-07-29T10:53:50;5.50;;;2.57;;
6590;SDS011;3331;47.978;7.662;2022-07-29T10:56:23;4.67;;;3.03;;
6590;SDS011;3331;47.978;7.662;2022-07-29T11:01:33;4.07;;;3.30;;
6590;SDS011;3331;47.978;7.662;2022-07-29T11:03:59;12.10;;;4.10;;
6590;SDS011;3331;47.978;7.662;2022-07-29T11:06:26;6.40;;;3.27;;
6590;SDS011;3331;47.978;7.662;2022-07-29T11:09:15;5.00;;;2.57;;
6590;SDS011;3331;47.978;7.662;2022-07-29T11:11:42;4.73;;;2.57;;
6590;SDS011;3331;47.978;7.662;2022-07-29T11:14:09;4.50;;;2.60;;
6590;SDS011;3331;47.978;7.662;2022-07-29T11:19:21;4.87;;;2.33;;
6590;SDS011;3331;47.978;7.662;2022-07-29T11:21:47;2.80;;;2.50;;
6590;SDS011;3331;47.978;7.662;2022-07-29T11:24:15;5.23;;;2.20;;
6590;SDS011;3331;47.978;7.662;2022-07-29T11:26:42;2.80;;;2.47;;
6590;SDS011;3331;47.978;7.662;2022-07-29T11:29:16;4.93;;;2.40;;
6590;SDS011;3331;47.978;7.662;2022-07-29T11:31:43;8.13;;;2.70;;
6590;SDS011;3331;47.978;7.662;2022-07-29T11:34:16;3.30;;;2.30;;
6590;SDS011;3331;47.978;7.662;2022-07-29T11:39:27;5.93;;;2.83;;
6590;SDS011;3331;47.978;7.662;2022-07-29T11:41:54;4.47;;;2.47;;
6590;SDS011;3331;47.978;7.662;2022-07-29T11:44:53;4.47;;;2.57;;
6590;SDS011;3331;47.978;7.662;2022-07-29T11:47:20;3.77;;;2.17;;
6590;SDS011;3331;47.978;7.662;2022-07-29T11:49:46;5.53;;;2.43;;
6590;SDS011;3331;47.978;7.662;2022-07-29T11:52:13;3.33;;;2.50;;
6590;SDS011;3331;47.978;7.662;2022-07-29T11:54:41;6.57;;;2.73;;
6590;SDS011;3331;47.978;7.662;2022-07-29T11:57:09;5.93;;;3.10;;
6590;SDS011;3331;47.978;7.662;2022-07-29T11:59:38;3.00;;;2.40;;
6590;SDS011;3331;47.978;7.662;2022-07-29T12:02:04;5.03;;;2.40;;
6590;SDS011;3331;47.978;7.662;2022-07-29T12:04:31;2.57;;;2.37;;
6590;SDS011;3331;47.978;7.662;2022-07-29T12:06:57;4.23;;;2.20;;
6590;SDS011;3331;47.978;7.662;2022-07-29T12:09:24;3.90;;;2.50;;
6590;SDS011;3331;47.978;7.662;2022-07-29T12:11:57;2.80;;;2.60;;
6590;SDS011;3331;47.978;7.662;2022-07-29T12:14:24;4.37;;;2.33;;
6590;SDS011;3331;47.978;7.662;2022-07-29T12:16:51;2.40;;;2.00;;
6590;SDS011;3331;47.978;7.662;2022-07-29T12:19:17;4.77;;;2.50;;
6590;SDS011;3331;47.978;7.662;2022-07-29T12:21:44;7.17;;;2.20;;
6590;SDS011;3331;47.978;7.662;2022-07-29T12:24:10;2.67;;;2.20;;
6590;SDS011;3331;47.978;7.662;2022-07-29T12:26:41;5.13;;;2.27;;
6590;SDS011;3331;47.978;7.662;2022-07-29T12:29:16;4.27;;;2.10;;
6590;SDS011;3331;47.978;7.662;2022-07-29T12:31:43;5.73;;;2.80;;
6590;SDS011;3331;47.978;7.662;2022-07-29T12:34:10;13.33;;;2.70;;
6590;SDS011;3331;47.978;7.662;2022-07-29T12:36:37;3.63;;;2.63;;
6590;SDS011;3331;47.978;7.662;2022-07-29T12:39:03;2.27;;;2.07;;
6590;SDS011;3331;47.978;7.662;2022-07-29T12:41:30;5.53;;;2.50;;
6590;SDS011;3331;47.978;7.662;2022-07-29T12:43:57;6.33;;;2.50;;
6590;SDS011;3331;47.978;7.662;2022-07-29T12:46:25;5.63;;;3.33;;
6590;SDS011;3331;47.978;7.662;2022-07-29T12:48:52;6.17;;;2.80;;
6590;SDS011;3331;47.978;7.662;2022-07-29T12:51:25;6.60;;;2.53;;
6590;SDS011;3331;47.978;7.662;2022-07-29T12:54:01;2.90;;;2.40;;
6590;SDS011;3331;47.978;7.662;2022-07-29T12:56:28;4.53;;;2.50;;
6590;SDS011;3331;47.978;7.662;2022-07-29T12:58:54;9.40;;;2.70;;
6590;SDS011;3331;47.978;7.662;2022-07-29T13:01:21;3.70;;;2.40;;
6590;SDS011;3331;47.978;7.662;2022-07-29T13:03:50;5.10;;;2.37;;
6590;SDS011;3331;47.978;7.662;2022-07-29T13:06:29;3.00;;;2.20;;
6590;SDS011;3331;47.978;7.662;2022-07-29T13:08:59;2.77;;;2.30;;
6590;SDS011;3331;47.978;7.662;2022-07-29T13:11:29;2.97;;;2.20;;
6590;SDS011;3331;47.978;7.662;2022-07-29T13:13:56;5.13;;;2.10;;
6590;SDS011;3331;47.978;7.662;2022-07-29T13:16:22;4.03;;;2.07;;
6590;SDS011;3331;47.978;7.662;2022-07-29T13:19:02;3.27;;;2.07;;
6590;SDS011;3331;47.978;7.662;2022-07-29T13:21:29;4.97;;;2.30;;
6590;SDS011;3331;47.978;7.662;2022-07-29T13:23:55;4.33;;;2.47;;
6590;SDS011;3331;47.978;7.662;2022-07-29T13:26:21;2.80;;;2.30;;
6590;SDS011;3331;47.978;7.662;2022-07-29T13:28:48;3.27;;;1.97;;
6590;SDS011;3331;47.978;7.662;2022-07-29T13:31:14;6.13;;;2.53;;
6590;SDS011;3331;47.978;7.662;2022-07-29T13:33:41;5.03;;;2.20;;
6590;SDS011;3331;47.978;7.662;2022-07-29T13:36:09;5.97;;;2.43;;
6590;SDS011;3331;47.978;7.662;2022-07-29T13:38:35;3.37;;;2.37;;
6590;SDS011;3331;47.978;7.662;2022-07-29T13:41:01;6.60;;;2.53;;
6590;SDS011;3331;47.978;7.662;2022-07-29T13:43:28;4.33;;;2.07;;
6590;SDS011;3331;47.978;7.662;2022-07-29T13:45:54;5.60;;;2.47;;
6590;SDS011;3331;47.978;7.662;2022-07-29T13:48:21;8.90;;;2.40;;
6590;SDS011;3331;47.978;7.662;2022-07-29T13:50:47;4.33;;;2.37;;
6590;SDS011;3331;47.978;7.662;2022-07-29T13:53:15;3.83;;;2.40;;
6590;SDS011;3331;47.978;7.662;2022-07-29T13:55:41;5.60;;;2.33;;
6590;SDS011;3331;47.978;7.662;2022-07-29T13:58:08;4.53;;;2.50;;
6590;SDS011;3331;47.978;7.662;2022-07-29T14:00:34;2.13;;;1.67;;
6590;SDS011;3331;47.978;7.662;2022-07-29T14:03:00;3.70;;;2.70;;
6590;SDS011;3331;47.978;7.662;2022-07-29T14:05:27;2.20;;;2.00;;
6590;SDS011;3331;47.978;7.662;2022-07-29T14:07:53;2.73;;;2.00;;
6590;SDS011;3331;47.978;7.662;2022-07-29T14:10:21;3.90;;;2.00;;
6590;SDS011;3331;47.978;7.662;2022-07-29T14:12:47;2.20;;;1.93;;
6590;SDS011;3331;47.978;7.662;2022-07-29T14:15:14;2.73;;;2.17;;
6590;SDS011;3331;47.978;7.662;2022-07-29T14:17:40;8.47;;;2.00;;
6590;SDS011;3331;47.978;7.662;2022-07-29T14:20:07;5.73;;;2.00;;
6590;SDS011;3331;47.978;7.662;2022-07-29T14:22:33;2.10;;;2.00;;
6590;SDS011;3331;47.978;7.662;2022-07-29T14:25:00;3.97;;;2.03;;
6590;SDS011;3331;47.978;7.662;2022-07-29T14:27:27;5.47;;;2.20;;
6590;SDS011;3331;47.978;7.662;2022-07-29T14:29:54;2.30;;;2.10;;
6590;SDS011;3331;47.978;7.662;2022-07-29T14:32:20;5.00;;;2.10;;
6590;SDS011;3331;47.978;7.662;2022-07-29T14:34:47;6.20;;;1.80;;
6590;SDS011;3331;47.978;7.662;2022-07-29T14:37:13;3.57;;;1.97;;
6590;SDS011;3331;47.978;7.662;2022-07-29T14:39:39;4.57;;;1.90;;
6590;SDS011;3331;47.978;7.662;2022-07-29T14:42:06;4.23;;;1.73;;
6590;SDS011;3331;47.978;7.662;2022-07-29T14:44:34;4.03;;;1.70;;
6590;SDS011;3331;47.978;7.662;2022-07-29T14:47:01;3.10;;;1.90;;
6590;SDS011;3331;47.978;7.662;2022-07-29T14:49:27;3.80;;;2.03;;
6590;SDS011;3331;47.978;7.662;2022-07-29T14:51:53;3.13;;;2.00;;
6590;SDS011;3331;47.978;7.662;2022-07-29T14:54:20;3.73;;;1.63;;
6590;SDS011;3331;47.978;7.662;2022-07-29T14:56:46;3.03;;;1.83;;
6590;SDS011;3331;47.978;7.662;2022-07-29T14:59:14;6.67;;;2.00;;
6590;SDS011;3331;47.978;7.662;2022-07-29T15:01:42;2.40;;;1.63;;
6590;SDS011;3331;47.978;7.662;2022-07-29T15:04:08;2.93;;;1.70;;
6590;SDS011;3331;47.978;7.662;2022-07-29T15:06:35;2.03;;;1.90;;
6590;SDS011;3331;47.978;7.662;2022-07-29T15:09:02;4.37;;;1.83;;
6590;SDS011;3331;47.978;7.662;2022-07-29T15:11:29;3.97;;;1.77;;
6590;SDS011;3331;47.978;7.662;2022-07-29T15:13:55;3.37;;;1.77;;
6590;SDS011;3331;47.978;7.662;2022-07-29T15:16:22;4.80;;;2.10;;
6590;SDS011;3331;47.978;7.662;2022-07-29T15:18:50;2.47;;;1.53;;
6590;SDS011;3331;47.978;7.662;2022-07-29T15:21:16;2.07;;;1.60;;
6590;SDS011;3331;47.978;7.662;2022-07-29T15:23:44;2.30;;;1.53;;
6590;SDS011;3331;47.978;7.662;2022-07-29T15:26:11;2.07;;;1.70;;
6590;SDS011;3331;47.978;7.662;2022-07-29T15:28:39;2.20;;;1.67;;
6590;SDS011;3331;47.978;7.662;2022-07-29T15:31:06;2.57;;;1.50;;
6590;SDS011;3331;47.978;7.662;2022-07-29T15:33:34;2.07;;;1.87;;
6590;SDS011;3331;47.978;7.662;2022-07-29T15:36:01;2.10;;;1.90;;
6590;SDS011;3331;47.978;7.662;2022-07-29T15:38:31;1.80;;;1.70;;
6590;SDS011;3331;47.978;7.662;2022-07-29T15:40:58;3.07;;;2.00;;
6590;SDS011;3331;47.978;7.662;2022-07-29T15:43:24;3.33;;;1.83;;
6590;SDS011;3331;47.978;7.662;2022-07-29T15:45:51;2.83;;;1.60;;
6590;SDS011;3331;47.978;7.662;2022-07-29T15:48:31;3.73;;;1.67;;
6590;SDS011;3331;47.978;7.662;2022-07-29T15:50:58;5.53;;;2.53;;
6590;SDS011;3331;47.978;7.662;2022-07-29T15:56:24;2.83;;;1.80;;
6590;SDS011;3331;47.978;7.662;2022-07-29T15:58:51;1.43;;;1.30;;
6590;SDS011;3331;47.978;7.662;2022-07-29T16:01:18;2.63;;;1.43;;
6590;SDS011;3331;47.978;7.662;2022-07-29T16:03:44;3.53;;;1.90;;
6590;SDS011;3331;47.978;7.662;2022-07-29T16:06:11;3.67;;;1.80;;
6590;SDS011;3331;47.978;7.662;2022-07-29T16:08:38;3.60;;;1.60;;
6590;SDS011;3331;47.978;7.662;2022-07-29T16:11:04;4.90;;;1.77;;